createdAt,value
2023-02-18T00:00:15.634Z,0
2023-02-18T00:01:15.653Z,0
2023-02-18T00:02:15.774Z,0
2023-02-18T00:03:15.811Z,0
2023-02-18T00:04:15.650Z,0
2023-02-18T00:05:18.703Z,0
2023-02-18T00:06:15.964Z,0
2023-02-18T00:07:15.643Z,0
2023-02-18T00:08:15.666Z,0
2023-02-18T00:09:15.738Z,0
2023-02-18T00:10:18.451Z,0
2023-02-18T00:11:15.659Z,0
2023-02-18T00:12:15.661Z,0
2023-02-18T00:13:15.668Z,0
2023-02-18T00:14:15.709Z,0
2023-02-18T00:15:15.699Z,0
2023-02-18T00:16:19.569Z,0
2023-02-18T00:17:15.652Z,0
2023-02-18T00:18:15.686Z,0
2023-02-18T00:19:15.688Z,0
2023-02-18T00:20:15.645Z,0
2023-02-18T00:21:18.729Z,0
2023-02-18T00:22:15.660Z,0
2023-02-18T00:23:15.707Z,0
2023-02-18T00:24:15.700Z,0
2023-02-18T00:25:15.674Z,0
2023-02-18T00:26:16.505Z,0
2023-02-18T00:27:18.725Z,0
2023-02-18T00:28:15.681Z,0
2023-02-18T00:29:15.698Z,0
2023-02-18T00:30:15.869Z,0
2023-02-18T00:31:16.258Z,0
2023-02-18T00:32:18.915Z,0
2023-02-18T00:33:15.695Z,0
2023-02-18T00:34:15.677Z,0
2023-02-18T00:35:15.733Z,0
2023-02-18T00:36:16.202Z,0
2023-02-18T00:37:15.702Z,0
2023-02-18T00:38:18.601Z,0
2023-02-18T00:39:15.757Z,0
2023-02-18T00:40:15.773Z,0
2023-02-18T00:41:15.703Z,0
2023-02-18T00:42:15.689Z,0
2023-02-18T00:43:18.574Z,0
2023-02-18T00:44:15.713Z,0
2023-02-18T00:45:15.694Z,0
2023-02-18T00:46:16.513Z,0
2023-02-18T00:47:15.709Z,0
2023-02-18T00:48:15.730Z,0
2023-02-18T00:49:18.494Z,0
2023-02-18T00:50:15.743Z,0
2023-02-18T00:51:15.733Z,0
2023-02-18T00:52:15.743Z,0
2023-02-18T00:53:15.736Z,0
2023-02-18T00:54:18.871Z,0
2023-02-18T00:55:15.707Z,0
2023-02-18T00:56:16.214Z,0
2023-02-18T00:57:15.742Z,0
2023-02-18T00:58:15.720Z,0
2023-02-18T00:59:15.737Z,0
2023-02-18T01:00:18.572Z,0
2023-02-18T01:01:15.778Z,0
2023-02-18T01:02:15.719Z,0
2023-02-18T01:03:15.749Z,0
2023-02-18T01:04:15.751Z,0
2023-02-18T01:05:19.694Z,0
2023-02-18T01:06:16.294Z,0
2023-02-18T01:07:15.787Z,0
2023-02-18T01:08:15.785Z,0
2023-02-18T01:09:15.748Z,0
2023-02-18T01:10:17.239Z,0
2023-02-18T01:11:18.845Z,0
2023-02-18T01:12:15.779Z,0
2023-02-18T01:13:15.772Z,0
2023-02-18T01:14:15.784Z,0
2023-02-18T01:15:15.813Z,0
2023-02-18T01:16:19.686Z,0
2023-02-18T01:17:15.777Z,0
2023-02-18T01:18:15.778Z,0
2023-02-18T01:19:16.299Z,0
2023-02-18T01:20:15.801Z,0
2023-02-18T01:21:15.956Z,0
2023-02-18T01:22:15.859Z,0
2023-02-18T01:23:15.817Z,0
2023-02-18T01:24:15.808Z,0
2023-02-18T01:25:15.796Z,0
2023-02-18T01:26:16.419Z,0
2023-02-18T01:27:18.926Z,0
2023-02-18T01:28:15.825Z,0
2023-02-18T01:29:15.840Z,0
2023-02-18T01:30:16.041Z,0
2023-02-18T01:31:16.449Z,0
2023-02-18T01:32:16.460Z,0
2023-02-18T01:33:15.814Z,0
2023-02-18T01:34:15.831Z,0
2023-02-18T01:35:15.823Z,0
2023-02-18T01:36:16.863Z,0
2023-02-18T01:37:15.812Z,0
2023-02-18T01:38:18.613Z,0
2023-02-18T01:39:15.788Z,0
2023-02-18T01:40:15.850Z,0
2023-02-18T01:41:15.804Z,0
2023-02-18T01:42:15.854Z,0
2023-02-18T01:43:15.913Z,0
2023-02-18T01:44:15.828Z,0
2023-02-18T01:45:15.882Z,0
2023-02-18T01:46:16.723Z,0
2023-02-18T01:47:15.831Z,0
2023-02-18T01:48:15.844Z,0
2023-02-18T01:49:15.818Z,0
2023-02-18T01:50:15.861Z,0
2023-02-18T01:51:15.842Z,0
2023-02-18T01:52:15.800Z,0
2023-02-18T01:53:15.812Z,0
2023-02-18T01:54:15.859Z,0
2023-02-18T01:55:15.851Z,0
2023-02-18T01:56:16.373Z,0
2023-02-18T01:57:15.822Z,0
2023-02-18T01:58:15.860Z,0
2023-02-18T01:59:15.883Z,0
2023-02-18T02:00:15.931Z,0
2023-02-18T02:01:16.070Z,0
2023-02-18T02:02:16.197Z,0
2023-02-18T02:03:15.880Z,0
2023-02-18T02:04:15.855Z,0
2023-02-18T02:05:15.876Z,0
2023-02-18T02:06:16.198Z,0
2023-02-18T02:07:15.834Z,0
2023-02-18T02:08:15.851Z,0
2023-02-18T02:09:15.843Z,0
2023-02-18T02:10:19.006Z,0
2023-02-18T02:11:15.830Z,0
2023-02-18T02:12:15.860Z,0
2023-02-18T02:13:15.837Z,0
2023-02-18T02:14:15.848Z,0
2023-02-18T02:15:15.888Z,0
2023-02-18T02:16:16.737Z,0
2023-02-18T02:17:15.898Z,0
2023-02-18T02:18:15.923Z,0
2023-02-18T02:19:15.901Z,0
2023-02-18T02:20:15.887Z,0
2023-02-18T02:21:16.232Z,0
2023-02-18T02:22:15.870Z,0
2023-02-18T02:23:15.863Z,0
2023-02-18T02:24:15.885Z,0
2023-02-18T02:25:15.874Z,0
2023-02-18T02:26:16.251Z,0
2023-02-18T02:27:15.878Z,0
2023-02-18T02:28:15.873Z,0
2023-02-18T02:29:15.893Z,0
2023-02-18T02:30:16.166Z,0
2023-02-18T02:31:16.466Z,0
2023-02-18T02:32:19.072Z,0
2023-02-18T02:33:15.880Z,0
2023-02-18T02:34:15.886Z,0
2023-02-18T02:35:15.933Z,0
2023-02-18T02:36:16.244Z,0
2023-02-18T02:37:15.947Z,0
2023-02-18T02:38:15.904Z,0
2023-02-18T02:39:15.887Z,0
2023-02-18T02:40:15.883Z,0
2023-02-18T02:41:15.897Z,0
2023-02-18T02:42:15.921Z,0
2023-02-18T02:43:18.994Z,0
2023-02-18T02:44:15.927Z,0
2023-02-18T02:45:15.946Z,0
2023-02-18T02:46:17.343Z,0
2023-02-18T02:47:15.919Z,0
2023-02-18T02:48:19.026Z,0
2023-02-18T02:49:15.925Z,0
2023-02-18T02:50:15.931Z,0
2023-02-18T02:51:15.941Z,0
2023-02-18T02:52:15.917Z,0
2023-02-18T02:53:15.905Z,0
2023-02-18T02:54:19.121Z,0
2023-02-18T02:55:16.922Z,0
2023-02-18T02:56:16.373Z,0
2023-02-18T02:57:15.974Z,0
2023-02-18T02:58:15.981Z,0
2023-02-18T02:59:18.720Z,0
2023-02-18T03:00:15.969Z,0
2023-02-18T03:01:16.323Z,0
2023-02-18T03:02:15.932Z,0
2023-02-18T03:03:16.308Z,0
2023-02-18T03:04:15.989Z,0
2023-02-18T03:05:18.803Z,0
2023-02-18T03:06:16.376Z,0
2023-02-18T03:07:16.011Z,0
2023-02-18T03:08:15.961Z,0
2023-02-18T03:09:15.966Z,0
2023-02-18T03:10:18.948Z,0
2023-02-18T03:11:15.999Z,0
2023-02-18T03:12:15.977Z,0
2023-02-18T03:13:15.930Z,0
2023-02-18T03:14:15.976Z,0
2023-02-18T03:15:16.042Z,0
2023-02-18T03:16:19.937Z,0
2023-02-18T03:17:15.976Z,0
2023-02-18T03:18:15.970Z,0
2023-02-18T03:19:15.986Z,0
2023-02-18T03:20:16.086Z,0
2023-02-18T03:21:19.872Z,0
2023-02-18T03:22:15.979Z,0
2023-02-18T03:23:15.980Z,0
2023-02-18T03:24:15.999Z,0
2023-02-18T03:25:15.998Z,0
2023-02-18T03:26:16.664Z,0
2023-02-18T03:27:18.767Z,0
2023-02-18T03:28:16.012Z,0
2023-02-18T03:29:15.975Z,0
2023-02-18T03:30:16.267Z,0
2023-02-18T03:31:16.176Z,0
2023-02-18T03:32:19.424Z,0
2023-02-18T03:33:15.979Z,0
2023-02-18T03:34:15.987Z,0
2023-02-18T03:35:16.002Z,0
2023-02-18T03:36:16.530Z,0
2023-02-18T03:37:16.030Z,0
2023-02-18T03:38:19.052Z,0
2023-02-18T03:39:16.019Z,0
2023-02-18T03:40:16.003Z,0
2023-02-18T03:41:16.021Z,0
2023-02-18T03:42:16.000Z,0
2023-02-18T03:43:18.817Z,0
2023-02-18T03:44:16.022Z,0
2023-02-18T03:45:16.014Z,0
2023-02-18T03:46:17.081Z,0
2023-02-18T03:47:16.018Z,0
2023-02-18T03:48:16.024Z,0
2023-02-18T03:49:18.817Z,0
2023-02-18T03:50:16.047Z,0
2023-02-18T03:51:16.042Z,0
2023-02-18T03:52:16.081Z,0
2023-02-18T03:53:16.028Z,0
2023-02-18T03:54:18.846Z,0
2023-02-18T03:55:16.032Z,0
2023-02-18T03:56:16.427Z,0
2023-02-18T03:57:16.037Z,0
2023-02-18T03:58:16.045Z,0
2023-02-18T03:59:16.073Z,0
2023-02-18T04:00:16.061Z,0
2023-02-18T04:01:16.264Z,0
2023-02-18T04:02:16.071Z,0
2023-02-18T04:03:16.053Z,0
2023-02-18T04:04:16.367Z,0
2023-02-18T04:05:19.106Z,0
2023-02-18T04:06:16.603Z,0
2023-02-18T04:07:16.039Z,0
2023-02-18T04:08:16.068Z,0
2023-02-18T04:09:16.326Z,0
2023-02-18T04:10:16.071Z,0
2023-02-18T04:11:16.037Z,0
2023-02-18T04:12:16.047Z,0
2023-02-18T04:13:16.078Z,0
2023-02-18T04:14:16.043Z,0
2023-02-18T04:15:16.164Z,0
2023-02-18T04:16:16.698Z,0
2023-02-18T04:17:16.051Z,0
2023-02-18T04:18:16.092Z,0
2023-02-18T04:19:16.062Z,0
2023-02-18T04:20:16.068Z,0
2023-02-18T04:21:16.091Z,0
2023-02-18T04:22:16.111Z,0
2023-02-18T04:23:16.219Z,0
2023-02-18T04:24:16.133Z,0
2023-02-18T04:25:16.063Z,0
2023-02-18T04:26:16.509Z,0
2023-02-18T04:27:16.582Z,0
2023-02-18T04:28:16.045Z,0
2023-02-18T04:29:16.107Z,0
2023-02-18T04:30:18.762Z,0
2023-02-18T04:31:16.796Z,0
2023-02-18T04:32:19.024Z,0
2023-02-18T04:33:16.077Z,0
2023-02-18T04:34:16.118Z,0
2023-02-18T04:35:16.088Z,0
2023-02-18T04:36:16.642Z,0
2023-02-18T04:37:19.226Z,0
2023-02-18T04:38:16.102Z,0
2023-02-18T04:39:16.091Z,0
2023-02-18T04:40:16.134Z,0
2023-02-18T04:41:16.137Z,0
2023-02-18T04:42:16.126Z,0
2023-02-18T04:43:16.151Z,0
2023-02-18T04:44:16.078Z,0
2023-02-18T04:45:16.134Z,0
2023-02-18T04:46:16.964Z,0
2023-02-18T04:47:16.127Z,0
2023-02-18T04:48:18.851Z,0
2023-02-18T04:49:16.094Z,0
2023-02-18T04:50:16.158Z,0
2023-02-18T04:51:16.148Z,0
2023-02-18T04:52:16.114Z,0
2023-02-18T04:53:16.111Z,0
2023-02-18T04:54:16.165Z,0
2023-02-18T04:55:16.118Z,0
2023-02-18T04:56:16.732Z,0
2023-02-18T04:57:17.162Z,0
2023-02-18T04:58:16.181Z,0
2023-02-18T04:59:19.216Z,0
2023-02-18T05:00:16.205Z,0
2023-02-18T05:01:16.348Z,0
2023-02-18T05:02:16.208Z,0
2023-02-18T05:03:16.229Z,0
2023-02-18T05:04:16.365Z,0
2023-02-18T05:05:16.155Z,0
2023-02-18T05:06:16.645Z,0
2023-02-18T05:07:16.176Z,0
2023-02-18T05:08:16.225Z,0
2023-02-18T05:09:16.184Z,0
2023-02-18T05:10:19.178Z,0
2023-02-18T05:11:16.133Z,0
2023-02-18T05:12:16.208Z,0
2023-02-18T05:13:16.164Z,0
2023-02-18T05:14:16.255Z,0
2023-02-18T05:15:19.177Z,0
2023-02-18T05:16:17.327Z,0
2023-02-18T05:17:16.053Z,0
2023-02-18T05:18:16.164Z,0
2023-02-18T05:19:16.564Z,0
2023-02-18T05:20:16.954Z,0
2023-02-18T05:21:19.241Z,0
2023-02-18T05:22:16.234Z,0
2023-02-18T05:23:16.160Z,0
2023-02-18T05:24:16.231Z,0
2023-02-18T05:25:16.211Z,0
2023-02-18T05:26:19.363Z,0
2023-02-18T05:27:16.224Z,0
2023-02-18T05:28:16.254Z,0
2023-02-18T05:29:16.255Z,0
2023-02-18T05:30:16.436Z,0
2023-02-18T05:31:16.883Z,0
2023-02-18T05:32:19.065Z,0
2023-02-18T05:33:16.264Z,0
2023-02-18T05:34:16.200Z,0
2023-02-18T05:35:16.301Z,0
2023-02-18T05:36:16.499Z,0
2023-02-18T05:37:17.888Z,0
2023-02-18T05:38:16.301Z,0
2023-02-18T05:39:19.179Z,0
2023-02-18T05:40:16.256Z,0
2023-02-18T05:41:16.399Z,0
2023-02-18T05:42:16.238Z,0
2023-02-18T05:43:18.958Z,0
2023-02-18T05:44:16.276Z,0
2023-02-18T05:45:16.279Z,0
2023-02-18T05:46:16.810Z,0
2023-02-18T05:47:18.473Z,0
2023-02-18T05:48:19.270Z,0
2023-02-18T05:49:16.245Z,0
2023-02-18T05:50:16.256Z,0
2023-02-18T05:51:16.226Z,0
2023-02-18T05:52:16.234Z,0
2023-02-18T05:53:18.367Z,0
2023-02-18T05:54:19.442Z,0
2023-02-18T05:55:16.297Z,0
2023-02-18T05:56:16.691Z,0
2023-02-18T05:57:16.291Z,0
2023-02-18T05:58:16.294Z,0
2023-02-18T05:59:19.284Z,0
2023-02-18T06:00:16.289Z,0
2023-02-18T06:01:16.322Z,0
2023-02-18T06:02:16.268Z,0
2023-02-18T06:03:16.237Z,0
2023-02-18T06:04:16.261Z,0
2023-02-18T06:05:19.453Z,0
2023-02-18T06:06:17.273Z,0
2023-02-18T06:07:16.317Z,0
2023-02-18T06:08:16.281Z,0
2023-02-18T06:09:16.339Z,0
2023-02-18T06:10:19.361Z,0
2023-02-18T06:11:16.275Z,0
2023-02-18T06:12:16.285Z,0
2023-02-18T06:13:16.283Z,0
2023-02-18T06:14:16.410Z,0
2023-02-18T06:15:16.273Z,0
2023-02-18T06:16:20.249Z,4
2023-02-18T06:17:16.286Z,0
2023-02-18T06:18:16.282Z,4
2023-02-18T06:19:16.271Z,4
2023-02-18T06:20:16.362Z,4
2023-02-18T06:21:19.404Z,4
2023-02-18T06:22:16.296Z,0
2023-02-18T06:23:18.492Z,4
2023-02-18T06:24:19.142Z,4
2023-02-18T06:25:16.296Z,4
2023-02-18T06:26:16.760Z,4
2023-02-18T06:27:16.330Z,4
2023-02-18T06:28:16.370Z,8
2023-02-18T06:29:16.261Z,8
2023-02-18T06:30:16.515Z,12
2023-02-18T06:31:16.648Z,8
2023-02-18T06:32:20.049Z,12
2023-02-18T06:33:16.343Z,16
2023-02-18T06:34:16.362Z,16
2023-02-18T06:35:16.321Z,16
2023-02-18T06:36:16.938Z,16
2023-02-18T06:37:16.334Z,16
2023-02-18T06:38:16.502Z,16
2023-02-18T06:39:17.344Z,12
2023-02-18T06:40:16.402Z,16
2023-02-18T06:41:16.313Z,16
2023-02-18T06:42:17.313Z,16
2023-02-18T06:43:17.312Z,20
2023-02-18T06:44:16.288Z,16
2023-02-18T06:45:16.359Z,20
2023-02-18T06:46:16.905Z,20
2023-02-18T06:47:17.323Z,16
2023-02-18T06:48:16.323Z,20
2023-02-18T06:49:16.309Z,20
2023-02-18T06:50:16.355Z,24
2023-02-18T06:51:16.311Z,24
2023-02-18T06:52:16.304Z,28
2023-02-18T06:53:16.371Z,24
2023-02-18T06:54:16.347Z,28
2023-02-18T06:55:16.323Z,32
2023-02-18T06:56:16.836Z,40
2023-02-18T06:57:16.308Z,40
2023-02-18T06:58:16.346Z,48
2023-02-18T06:59:16.362Z,44
2023-02-18T07:00:16.311Z,40
2023-02-18T07:01:16.670Z,32
2023-02-18T07:02:16.327Z,24
2023-02-18T07:03:16.447Z,24
2023-02-18T07:04:19.299Z,20
2023-02-18T07:05:16.365Z,20
2023-02-18T07:06:16.939Z,24
2023-02-18T07:07:16.331Z,32
2023-02-18T07:08:16.393Z,36
2023-02-18T07:09:16.344Z,32
2023-02-18T07:10:16.337Z,36
2023-02-18T07:11:16.495Z,40
2023-02-18T07:12:16.364Z,40
2023-02-18T07:13:16.395Z,40
2023-02-18T07:14:16.346Z,40
2023-02-18T07:15:19.383Z,44
2023-02-18T07:16:17.239Z,40
2023-02-18T07:17:16.358Z,36
2023-02-18T07:18:16.414Z,36
2023-02-18T07:19:19.148Z,36
2023-02-18T07:20:16.396Z,36
2023-02-18T07:21:16.372Z,36
2023-02-18T07:22:16.402Z,36
2023-02-18T07:23:16.364Z,44
2023-02-18T07:24:16.370Z,48
2023-02-18T07:25:16.429Z,48
2023-02-18T07:26:20.156Z,48
2023-02-18T07:27:16.220Z,48
2023-02-18T07:28:19.225Z,52
2023-02-18T07:29:16.207Z,52
2023-02-18T07:30:16.753Z,52
2023-02-18T07:31:16.804Z,44
2023-02-18T07:32:16.651Z,40
2023-02-18T07:33:16.380Z,40
2023-02-18T07:34:16.364Z,44
2023-02-18T07:35:16.405Z,44
2023-02-18T07:36:19.944Z,48
2023-02-18T07:37:19.697Z,48
2023-02-18T07:38:16.432Z,48
2023-02-18T07:39:17.245Z,52
2023-02-18T07:40:16.324Z,52
2023-02-18T07:41:16.390Z,52
2023-02-18T07:42:19.200Z,52
2023-02-18T07:43:16.406Z,56
2023-02-18T07:44:16.404Z,56
2023-02-18T07:45:16.442Z,56
2023-02-18T07:46:17.416Z,56
2023-02-18T07:47:16.413Z,56
2023-02-18T07:48:19.045Z,52
2023-02-18T07:49:16.440Z,60
2023-02-18T07:50:16.428Z,72
2023-02-18T07:51:16.554Z,88
2023-02-18T07:52:16.417Z,100
2023-02-18T07:53:17.963Z,120
2023-02-18T07:54:16.438Z,132
2023-02-18T07:55:19.450Z,132
2023-02-18T07:56:16.784Z,132
2023-02-18T07:57:16.451Z,148
2023-02-18T07:58:16.422Z,152
2023-02-18T07:59:19.607Z,140
2023-02-18T08:00:16.419Z,124
2023-02-18T08:01:16.417Z,108
2023-02-18T08:02:16.627Z,104
2023-02-18T08:03:16.489Z,100
2023-02-18T08:04:19.552Z,100
2023-02-18T08:05:16.407Z,92
2023-02-18T08:06:17.097Z,100
2023-02-18T08:07:16.543Z,100
2023-02-18T08:08:16.491Z,108
2023-02-18T08:09:16.484Z,116
2023-02-18T08:10:20.276Z,128
2023-02-18T08:11:28.990Z,140
2023-02-18T08:12:16.532Z,144
2023-02-18T08:13:16.450Z,176
2023-02-18T08:14:16.454Z,192
2023-02-18T08:15:19.203Z,224
2023-02-18T08:16:17.278Z,272
2023-02-18T08:17:16.504Z,312
2023-02-18T08:18:16.487Z,812
2023-02-18T08:19:19.544Z,1164
2023-02-18T08:20:16.523Z,768
2023-02-18T08:21:19.294Z,1388
2023-02-18T08:22:16.487Z,1532
2023-02-18T08:23:16.547Z,1476
2023-02-18T08:24:16.506Z,1484
2023-02-18T08:25:34.183Z,1392
2023-02-18T08:26:19.219Z,1452
2023-02-18T08:27:16.465Z,1420
2023-02-18T08:28:16.501Z,1384
2023-02-18T08:29:16.497Z,1500
2023-02-18T08:30:16.773Z,1452
2023-02-18T08:31:17.038Z,1352
2023-02-18T08:32:19.593Z,1412
2023-02-18T08:33:16.565Z,1476
2023-02-18T08:34:16.560Z,1468
2023-02-18T08:35:16.493Z,1356
2023-02-18T08:36:16.900Z,1272
2023-02-18T08:37:19.300Z,984
2023-02-18T08:38:16.564Z,852
2023-02-18T08:39:16.508Z,948
2023-02-18T08:40:16.532Z,820
2023-02-18T08:41:17.078Z,972
2023-02-18T08:42:16.484Z,532
2023-02-18T08:43:19.620Z,1108
2023-02-18T08:44:16.529Z,444
2023-02-18T08:45:16.505Z,504
2023-02-18T08:46:40.307Z,520
2023-02-18T08:48:25.287Z,1032
2023-02-18T08:49:38.103Z,592
2023-02-18T08:50:34.722Z,428
2023-02-18T08:51:34.734Z,384
2023-02-18T08:52:34.759Z,508
2023-02-18T08:53:34.790Z,388
2023-02-18T08:54:37.927Z,316
2023-02-18T08:55:34.776Z,460
2023-02-18T08:56:34.821Z,344
2023-02-18T08:57:34.896Z,356
2023-02-18T08:58:34.763Z,396
2023-02-18T08:59:34.745Z,412
2023-02-18T09:00:37.920Z,456
2023-02-18T09:01:34.944Z,364
2023-02-18T09:02:34.755Z,396
2023-02-18T09:03:34.836Z,396
2023-02-18T09:04:34.988Z,472
2023-02-18T09:05:38.027Z,368
2023-02-18T09:06:34.992Z,384
2023-02-18T09:07:34.757Z,424
2023-02-18T09:08:34.779Z,368
2023-02-18T09:09:34.769Z,372
2023-02-18T09:10:34.783Z,416
2023-02-18T09:11:37.733Z,416
2023-02-18T09:12:34.783Z,320
2023-02-18T09:13:34.764Z,256
2023-02-18T09:14:34.756Z,252
2023-02-18T09:15:34.999Z,272
2023-02-18T09:16:38.098Z,268
2023-02-18T09:17:34.933Z,284
2023-02-18T09:18:35.486Z,332
2023-02-18T09:19:34.794Z,340
2023-02-18T09:20:34.784Z,296
2023-02-18T09:21:34.803Z,248
2023-02-18T09:22:37.624Z,180
2023-02-18T09:23:34.827Z,136
2023-02-18T09:24:34.771Z,140
2023-02-18T09:25:34.779Z,160
2023-02-18T09:26:34.871Z,184
2023-02-18T09:27:37.924Z,188
2023-02-18T09:28:34.802Z,168
2023-02-18T09:29:34.788Z,152
2023-02-18T09:30:35.122Z,144
2023-02-18T09:31:35.514Z,140
2023-02-18T09:32:41.900Z,124
2023-02-18T09:33:37.670Z,116
2023-02-18T09:34:34.800Z,112
2023-02-18T09:35:34.837Z,116
2023-02-18T09:36:34.932Z,124
2023-02-18T09:37:34.827Z,124
2023-02-18T09:38:37.935Z,136
2023-02-18T09:39:34.846Z,156
2023-02-18T09:40:34.835Z,164
2023-02-18T09:41:34.892Z,148
2023-02-18T09:42:34.897Z,136
2023-02-18T09:43:34.938Z,132
2023-02-18T09:44:37.915Z,128
2023-02-18T09:45:34.875Z,132
2023-02-18T09:46:35.247Z,152
2023-02-18T09:47:34.816Z,152
2023-02-18T09:48:34.840Z,144
2023-02-18T09:49:37.980Z,192
2023-02-18T09:50:35.068Z,220
2023-02-18T09:51:34.798Z,192
2023-02-18T09:52:34.826Z,160
2023-02-18T09:53:34.874Z,160
2023-02-18T09:54:34.915Z,164
2023-02-18T09:55:37.631Z,200
2023-02-18T09:56:34.837Z,176
2023-02-18T09:57:34.921Z,164
2023-02-18T09:58:34.895Z,144
2023-02-18T09:59:34.918Z,152
2023-02-18T10:00:37.693Z,160
2023-02-18T10:01:34.969Z,140
2023-02-18T10:02:34.947Z,140
2023-02-18T10:03:34.923Z,156
2023-02-18T10:04:34.830Z,196
2023-02-18T10:05:34.939Z,240
2023-02-18T10:06:34.841Z,248
2023-02-18T10:07:35.472Z,204
2023-02-18T10:08:34.908Z,176
2023-02-18T10:09:34.957Z,184
2023-02-18T10:10:34.879Z,200
2023-02-18T10:11:37.874Z,200
2023-02-18T10:12:37.117Z,224
2023-02-18T10:13:34.932Z,240
2023-02-18T10:14:35.005Z,252
2023-02-18T10:15:34.981Z,248
2023-02-18T10:16:35.366Z,252
2023-02-18T10:17:34.967Z,224
2023-02-18T10:18:35.031Z,220
2023-02-18T10:19:34.931Z,216
2023-02-18T10:20:35.346Z,184
2023-02-18T10:21:34.909Z,172
2023-02-18T10:22:37.970Z,172
2023-02-18T10:23:34.902Z,196
2023-02-18T10:24:34.895Z,216
2023-02-18T10:25:34.873Z,252
2023-02-18T10:26:34.917Z,248
2023-02-18T10:27:34.953Z,236
2023-02-18T10:28:34.995Z,256
2023-02-18T10:29:34.901Z,276
2023-02-18T10:30:35.760Z,312
2023-02-18T10:31:35.650Z,312
2023-02-18T10:32:35.048Z,316
2023-02-18T10:33:38.121Z,380
2023-02-18T10:34:34.994Z,364
2023-02-18T10:35:34.928Z,392
2023-02-18T10:36:34.905Z,480
2023-02-18T10:37:34.999Z,444
2023-02-18T10:38:36.111Z,368
2023-02-18T10:39:35.107Z,348
2023-02-18T10:40:34.915Z,364
2023-02-18T10:41:34.970Z,456
2023-02-18T10:42:34.594Z,348
2023-02-18T10:43:34.833Z,348
2023-02-18T10:44:35.083Z,352
2023-02-18T10:45:35.033Z,364
2023-02-18T10:46:35.326Z,372
2023-02-18T10:47:35.089Z,392
2023-02-18T10:48:35.108Z,396
2023-02-18T10:49:38.088Z,364
2023-02-18T10:50:35.251Z,340
2023-02-18T10:51:35.080Z,360
2023-02-18T10:52:35.047Z,372
2023-02-18T10:53:35.131Z,388
2023-02-18T10:54:35.009Z,364
2023-02-18T10:55:34.935Z,312
2023-02-18T10:56:35.511Z,292
2023-02-18T10:57:35.144Z,288
2023-02-18T10:58:35.092Z,296
2023-02-18T10:59:35.169Z,264
2023-02-18T11:00:35.079Z,208
2023-02-18T11:01:35.275Z,152
2023-02-18T11:02:35.147Z,128
2023-02-18T11:03:35.263Z,140
2023-02-18T11:04:35.206Z,164
2023-02-18T11:05:35.098Z,216
2023-02-18T11:06:35.518Z,240
2023-02-18T11:07:35.066Z,220
2023-02-18T11:08:35.218Z,184
2023-02-18T11:09:35.146Z,176
2023-02-18T11:10:35.079Z,208
2023-02-18T11:11:35.018Z,208
2023-02-18T11:12:35.041Z,176
2023-02-18T11:13:35.151Z,184
2023-02-18T11:14:34.998Z,208
2023-02-18T11:15:35.105Z,200
2023-02-18T11:16:38.283Z,164
2023-02-18T11:17:35.148Z,124
2023-02-18T11:18:35.166Z,116
2023-02-18T11:19:35.162Z,100
2023-02-18T11:20:35.091Z,88
2023-02-18T11:21:38.125Z,80
2023-02-18T11:22:35.410Z,76
2023-02-18T11:23:35.098Z,84
2023-02-18T11:24:36.121Z,88
2023-02-18T11:25:35.182Z,120
2023-02-18T11:26:35.233Z,176
2023-02-18T11:27:38.167Z,180
2023-02-18T11:28:35.159Z,148
2023-02-18T11:29:35.062Z,124
2023-02-18T11:30:35.333Z,132
2023-02-18T11:31:35.653Z,152
2023-02-18T11:32:38.098Z,168
2023-02-18T11:33:35.125Z,164
2023-02-18T11:34:35.190Z,148
2023-02-18T11:35:35.270Z,132
2023-02-18T11:36:35.170Z,116
2023-02-18T11:37:35.105Z,112
2023-02-18T11:38:38.462Z,152
2023-02-18T11:39:35.184Z,184
2023-02-18T11:40:35.162Z,224
2023-02-18T11:41:35.194Z,264
2023-02-18T11:42:35.136Z,292
2023-02-18T11:43:38.035Z,292
2023-02-18T11:44:35.190Z,268
2023-02-18T11:45:34.550Z,292
2023-02-18T11:46:34.630Z,280
2023-02-18T11:47:34.542Z,288
2023-02-18T11:48:35.781Z,276
2023-02-18T11:49:38.619Z,244
2023-02-18T11:50:34.589Z,244
2023-02-18T11:51:34.623Z,272
2023-02-18T11:52:34.550Z,260
2023-02-18T11:53:34.608Z,224
2023-02-18T11:54:37.708Z,176
2023-02-18T11:55:34.585Z,164
2023-02-18T11:56:35.114Z,168
2023-02-18T11:57:35.142Z,196
2023-02-18T11:58:35.290Z,220
2023-02-18T11:59:35.105Z,200
2023-02-18T12:00:38.286Z,188
2023-02-18T12:01:35.094Z,176
2023-02-18T12:02:35.196Z,172
2023-02-18T12:03:37.715Z,204
2023-02-18T12:04:35.727Z,228
2023-02-18T12:05:37.910Z,216
2023-02-18T12:06:35.033Z,188
2023-02-18T12:07:35.106Z,144
2023-02-18T12:08:35.728Z,136
2023-02-18T12:09:35.223Z,156
2023-02-18T12:10:35.198Z,152
2023-02-18T12:11:37.870Z,120
2023-02-18T12:12:35.073Z,96
2023-02-18T12:13:35.179Z,100
2023-02-18T12:14:35.545Z,148
2023-02-18T12:15:35.601Z,176
2023-02-18T12:16:38.623Z,172
2023-02-18T12:17:35.404Z,168
2023-02-18T12:18:36.070Z,180
2023-02-18T12:19:35.098Z,180
2023-02-18T12:20:35.202Z,184
2023-02-18T12:21:35.167Z,216
2023-02-18T12:22:38.055Z,256
2023-02-18T12:23:35.196Z,276
2023-02-18T12:24:35.223Z,300
2023-02-18T12:25:35.171Z,296
2023-02-18T12:26:35.194Z,308
2023-02-18T12:27:38.313Z,320
2023-02-18T12:28:35.132Z,292
2023-02-18T12:29:38.145Z,280
2023-02-18T12:30:35.419Z,304
2023-02-18T12:31:35.776Z,292
2023-02-18T12:32:35.165Z,236
2023-02-18T12:33:39.826Z,284
2023-02-18T12:34:35.130Z,312
2023-02-18T12:35:35.122Z,300
2023-02-18T12:36:35.681Z,276
2023-02-18T12:37:38.050Z,268
2023-02-18T12:38:38.183Z,300
2023-02-18T12:39:38.237Z,368
2023-02-18T12:40:38.408Z,492
2023-02-18T12:41:35.247Z,352
2023-02-18T12:42:35.319Z,272
2023-02-18T12:43:35.364Z,236
2023-02-18T12:44:35.180Z,200
2023-02-18T12:45:35.256Z,204
2023-02-18T12:46:35.225Z,204
2023-02-18T12:47:37.483Z,196
2023-02-18T12:48:35.164Z,180
2023-02-18T12:49:38.942Z,168
2023-02-18T12:50:35.126Z,176
2023-02-18T12:51:37.412Z,168
2023-02-18T12:52:35.285Z,164
2023-02-18T12:53:35.263Z,160
2023-02-18T12:54:35.299Z,152
2023-02-18T12:55:35.235Z,164
2023-02-18T12:56:34.669Z,172
2023-02-18T12:57:34.638Z,168
2023-02-18T12:58:34.805Z,144
2023-02-18T12:59:34.746Z,128
2023-02-18T13:00:40.469Z,160
2023-02-18T13:01:34.830Z,244
2023-02-18T13:02:34.781Z,256
2023-02-18T13:03:34.709Z,220
2023-02-18T13:04:37.763Z,180
2023-02-18T13:05:34.693Z,192
2023-02-18T13:06:34.657Z,256
2023-02-18T13:07:35.114Z,336
2023-02-18T13:08:34.706Z,316
2023-02-18T13:09:34.821Z,248
2023-02-18T13:10:34.739Z,200
2023-02-18T13:11:34.856Z,156
2023-02-18T13:12:35.173Z,112
2023-02-18T13:13:34.662Z,92
2023-02-18T13:14:34.717Z,84
2023-02-18T13:15:34.775Z,84
2023-02-18T13:16:37.891Z,92
2023-02-18T13:17:34.709Z,96
2023-02-18T13:18:34.882Z,80
2023-02-18T13:19:34.767Z,68
2023-02-18T13:20:34.761Z,64
2023-02-18T13:21:34.705Z,64
2023-02-18T13:22:34.904Z,64
2023-02-18T13:23:34.774Z,60
2023-02-18T13:24:34.754Z,56
2023-02-18T13:25:34.738Z,56
2023-02-18T13:26:34.760Z,52
2023-02-18T13:27:34.742Z,56
2023-02-18T13:28:34.920Z,52
2023-02-18T13:29:34.901Z,48
2023-02-18T13:30:35.019Z,48
2023-02-18T13:31:35.387Z,52
2023-02-18T13:32:34.811Z,64
2023-02-18T13:33:34.876Z,100
2023-02-18T13:34:34.830Z,120
2023-02-18T13:35:35.203Z,96
2023-02-18T13:36:35.216Z,64
2023-02-18T13:37:35.228Z,52
2023-02-18T13:38:40.078Z,48
2023-02-18T13:39:35.345Z,48
2023-02-18T13:40:35.294Z,56
2023-02-18T13:41:35.378Z,64
2023-02-18T13:42:35.278Z,64
2023-02-18T13:43:38.097Z,72
2023-02-18T13:44:35.305Z,80
2023-02-18T13:45:35.262Z,88
2023-02-18T13:46:35.555Z,92
2023-02-18T13:47:35.058Z,80
2023-02-18T13:48:38.089Z,72
2023-02-18T13:49:35.357Z,68
2023-02-18T13:50:35.343Z,76
2023-02-18T13:51:35.285Z,80
2023-02-18T13:52:35.291Z,84
2023-02-18T13:53:35.244Z,80
2023-02-18T13:54:38.634Z,80
2023-02-18T13:55:35.247Z,80
2023-02-18T13:56:35.312Z,80
2023-02-18T13:57:35.288Z,76
2023-02-18T13:58:35.300Z,80
2023-02-18T13:59:38.182Z,80
2023-02-18T14:00:36.295Z,80
2023-02-18T14:01:35.290Z,72
2023-02-18T14:02:35.943Z,72
2023-02-18T14:03:35.291Z,68
2023-02-18T14:04:35.262Z,60
2023-02-18T14:05:38.281Z,60
2023-02-18T14:06:37.476Z,64
2023-02-18T14:07:35.407Z,64
2023-02-18T14:08:35.416Z,64
2023-02-18T14:09:35.314Z,60
2023-02-18T14:10:38.376Z,60
2023-02-18T14:11:35.270Z,68
2023-02-18T14:12:35.315Z,72
2023-02-18T14:13:35.486Z,72
2023-02-18T14:14:36.356Z,72
2023-02-18T14:15:35.614Z,80
2023-02-18T14:16:38.296Z,84
2023-02-18T14:17:35.300Z,84
2023-02-18T14:18:37.125Z,88